Time;durP1;ratioP1;P1;durP2;ratioP2;P2;SDS_P1;SDS_P2;PMS_P1;PMS_P2;Temp;Humidity;BMP_temperature;BMP_pressure;BME280_temperature;BME280_humidity;BME280_pressure;Samples;Min_cycle;Max_cycle;Signal;HPM_P1;HPM_P2
2023/06/13 00:04:10;;;;;;;;;;;;;;;15.12;100.00;97143.94;18565005;32;19971;-53
2023/06/13 00:14:16;;;;;;;;;;;;;;;14.90;100.00;97131.97;18571561;32;19968;-54
2023/06/13 00:24:18;;;;;;;;;;;;;;;14.70;100.00;97124.31;18571206;32;20004;-52
2023/06/13 00:34:21;;;;;;;;;;;;;;;14.52;100.00;97131.53;18556727;32;20346;-52
2023/06/13 00:44:24;;;;;;;;;;;;;;;14.32;100.00;97119.19;18569734;32;20001;-52
2023/06/13 00:54:29;;;;;;;;;;;;;;;14.12;100.00;97121.28;18569333;32;19957;-50
2023/06/13 01:04:34;;;;;;;;;;;;;;;13.92;100.00;97111.66;18568649;32;19971;-50
2023/06/13 01:14:48;;;;;;;;;;;;;;;13.72;100.00;97112.94;18567970;32;19965;-51
2023/06/13 01:24:52;;;;;;;;;;;;;;;13.55;100.00;97103.50;18553704;32;19952;-50
2023/06/13 01:34:58;;;;;;;;;;;;;;;13.36;100.00;97095.44;18566455;31;19956;-52
2023/06/13 01:45:02;;;;;;;;;;;;;;;13.22;100.00;97100.84;18566085;32;19999;-51
2023/06/13 01:55:09;;;;;;;;;;;;;;;13.01;100.00;97099.63;18551226;32;19993;-52
2023/06/13 02:05:13;;;;;;;;;;;;;;;12.84;100.00;97095.56;18565078;32;20000;-51
2023/06/13 02:15:15;;;;;;;;;;;;;;;12.70;100.00;97092.03;18550216;32;20347;-52
2023/06/13 02:25:18;;;;;;;;;;;;;;;12.53;100.00;97095.31;18563526;32;19967;-51
2023/06/13 02:35:23;;;;;;;;;;;;;;;12.35;100.00;97105.88;18562840;32;19997;-53
2023/06/13 02:45:25;;;;;;;;;;;;;;;12.20;100.00;97093.38;18562807;32;19993;-49
2023/06/13 02:55:29;;;;;;;;;;;;;;;12.03;100.00;97112.03;18562134;32;19996;-53
2023/06/13 03:05:32;;;;;;;;;;;;;;;11.87;100.00;97116.88;18547329;32;19953;-51
2023/06/13 03:15:35;;;;;;;;;;;;;;;11.73;100.00;97107.81;18561201;32;19956;-50
2023/06/13 03:25:38;;;;;;;;;;;;;;;11.54;100.00;97119.44;18560577;32;19975;-52
2023/06/13 03:35:40;;;;;;;;;;;;;;;11.50;100.00;97135.47;18561180;31;20296;-51
2023/06/13 03:45:43;;;;;;;;;;;;;;;11.39;100.00;97131.25;18573847;32;20373;-49
2023/06/13 03:55:45;;;;;;;;;;;;;;;11.32;100.00;97138.94;18558658;32;19960;-51
2023/06/13 04:05:48;;;;;;;;;;;;;;;11.29;100.00;97134.91;18572274;32;20036;-53
2023/06/13 04:15:51;;;;;;;;;;;;;;;11.30;100.00;97130.28;18571893;32;19962;-51
2023/06/13 04:25:54;;;;;;;;;;;;;;;11.40;100.00;97140.19;18571167;32;19957;-52
2023/06/13 04:36:03;;;;;;;;;;;;;;;11.58;100.00;97142.16;18570727;31;19993;-52
2023/06/13 04:46:06;;;;;;;;;;;;;;;11.82;100.00;97144.81;18569843;32;19948;-53
2023/06/13 04:56:11;;;;;;;;;;;;;;;12.06;100.00;97149.41;18555169;32;19956;-50
2023/06/13 05:06:15;;;;;;;;;;;;;;;12.36;100.00;97163.59;18568563;32;19960;-51
2023/06/13 05:16:18;;;;;;;;;;;;;;;12.67;100.00;97163.94;18553808;32;19965;-52
2023/06/13 05:26:21;;;;;;;;;;;;;;;13.06;100.00;97167.38;18567577;32;19952;-51
2023/06/13 05:36:24;;;;;;;;;;;;;;;13.52;100.00;97157.59;18552544;31;20329;-51
2023/06/13 05:46:27;;;;;;;;;;;;;;;14.01;100.00;97166.13;18552426;32;19960;-52
2023/06/13 05:56:32;;;;;;;;;;;;;;;14.64;100.00;97182.72;18565747;32;19980;-51
2023/06/13 06:06:35;;;;;;;;;;;;;;;15.26;100.00;97171.06;18564197;31;20337;-53
2023/06/13 06:16:39;;;;;;;;;;;;;;;16.02;94.83;97161.91;18564307;32;19992;-54
2023/06/13 06:26:41;;;;;;;;;;;;;;;16.77;86.98;97169.16;18549789;32;19984;-53
2023/06/13 06:36:45;;;;;;;;;;;;;;;17.44;72.12;97172.41;18562912;31;20359;-51
2023/06/13 06:46:47;;;;;;;;;;;;;;;18.09;62.91;97158.63;18562671;32;19985;-54
2023/06/13 06:56:50;;;;;;;;;;;;;;;18.60;59.11;97156.63;18548094;32;20083;-54
2023/06/13 07:06:53;;;;;;;;;;;;;;;19.11;54.62;97164.69;18561804;32;19987;-53
2023/06/13 07:16:55;;;;;;;;;;;;;;;19.49;54.67;97171.06;18561273;32;19987;-52
2023/06/13 07:26:58;;;;;;;;;;;;;;;19.82;49.89;97161.97;18560852;32;19953;-53
2023/06/13 07:37:03;;;;;;;;;;;;;;;20.11;47.65;97168.34;18560622;32;19989;-51
2023/06/13 07:47:06;;;;;;;;;;;;;;;20.39;47.47;97145.63;18560393;32;19963;-52
2023/06/13 07:57:09;;;;;;;;;;;;;;;20.62;48.31;97143.97;18545492;32;19957;-55
2023/06/13 08:07:32;;;;;;;;;;;;;;;20.92;47.57;97138.13;18559967;32;19961;-54
2023/06/13 08:17:36;;;;;;;;;;;;;;;21.25;47.17;97139.78;18559630;32;20000;-54
2023/06/13 08:27:39;;;;;;;;;;;;;;;21.55;46.54;97141.34;18552444;32;20006;-55
2023/06/13 08:37:42;;;;;;;;;;;;;;;21.85;44.69;97138.13;18570407;31;20020;-54
2023/06/13 08:47:52;;;;;;;;;;;;;;;22.16;45.69;97134.50;18569775;32;19994;-53
2023/06/13 08:57:56;;;;;;;;;;;;;;;22.40;44.03;97132.69;18569298;32;20389;-53
2023/06/13 09:08:01;;;;;;;;;;;;;;;22.68;42.41;97130.50;18568660;32;20261;-54
2023/06/13 09:18:27;;;;;;;;;;;;;;;22.96;45.36;97129.47;18568141;32;19960;-52
2023/06/13 09:28:36;;;;;;;;;;;;;;;23.29;41.61;97127.31;18567605;32;19952;-52
2023/06/13 09:38:41;;;;;;;;;;;;;;;23.46;44.03;97131.53;18565668;31;19961;-54
2023/06/13 09:48:45;;;;;;;;;;;;;;;23.77;41.47;97133.22;18551783;32;20328;-53
2023/06/13 09:58:54;;;;;;;;;;;;;;;23.95;42.54;97127.22;18565642;32;20377;-53
2023/06/13 10:08:56;;;;;;;;;;;;;;;24.18;40.95;97127.94;18565643;32;20345;-54
2023/06/13 10:19:02;;;;;;;;;;;;;;;24.57;42.19;97115.84;18550985;32;19957;-54
2023/06/13 10:29:24;;;;;;;;;;;;;;;24.87;40.78;97115.81;18563631;32;20261;-54
2023/06/13 10:39:46;;;;;;;;;;;;;;;25.01;40.82;97111.59;18562752;31;19989;-52
2023/06/13 10:49:53;;;;;;;;;;;;;;;25.29;40.16;97110.28;18562263;32;19945;-52
2023/06/13 10:59:56;;;;;;;;;;;;;;;25.78;36.29;97113.88;18562011;32;19992;-54
2023/06/13 11:10:03;;;;;;;;;;;;;;;25.42;39.32;97096.97;18561521;32;19952;-51
2023/06/13 11:20:18;;;;;;;;;;;;;;;25.81;38.03;97090.97;18561468;32;20359;-53
2023/06/13 11:30:22;;;;;;;;;;;;;;;26.41;37.12;97077.84;18561030;32;19990;-54
2023/06/13 11:40:32;;;;;;;;;;;;;;;26.80;41.45;97083.53;18560268;32;20368;-52
2023/06/13 11:50:36;;;;;;;;;;;;;;;27.12;35.57;97063.41;18560776;32;19952;-54
2023/06/13 12:00:59;;;;;;;;;;;;;;;27.48;35.92;97063.44;18552013;32;20020;-50
2023/06/13 12:11:07;;;;;;;;;;;;;;;27.79;38.61;97052.72;18572374;32;20023;-54
2023/06/13 12:21:34;;;;;;;;;;;;;;;28.36;38.46;97056.53;18548764;32;20305;-54
2023/06/13 12:31:41;;;;;;;;;;;;;;;29.02;37.68;97053.00;18570766;31;19989;-55
2023/06/13 12:41:55;;;;;;;;;;;;;;;29.62;36.22;97049.38;18570232;32;19968;-55
2023/06/13 12:52:01;;;;;;;;;;;;;;;29.80;35.27;97033.28;18569964;32;20276;-55
2023/06/13 13:02:20;;;;;;;;;;;;;;;30.35;32.49;97034.25;18554901;32;19968;-56
2023/06/13 13:12:23;;;;;;;;;;;;;;;30.81;33.71;97014.53;18568374;32;19952;-55
2023/06/13 13:22:26;;;;;;;;;;;;;;;31.07;32.21;97011.00;18568181;32;19945;-55
2023/06/13 13:32:31;;;;;;;;;;;;;;;30.83;34.01;96998.19;18567310;32;19971;-56
2023/06/13 13:42:37;;;;;;;;;;;;;;;31.07;32.18;96985.84;18566559;32;19952;-55
2023/06/13 13:52:41;;;;;;;;;;;;;;;31.49;31.75;96988.31;18566270;32;20355;-56
2023/06/13 14:02:45;;;;;;;;;;;;;;;32.24;33.89;96982.56;18565435;32;19964;-55
2023/06/13 14:12:50;;;;;;;;;;;;;;;32.30;27.94;96971.66;18564885;32;20356;-55
2023/06/13 14:22:54;;;;;;;;;;;;;;;32.90;30.51;96957.50;18563642;32;19968;-57
2023/06/13 14:33:05;;;;;;;;;;;;;;;33.31;29.68;96956.12;18563505;32;20340;-55
2023/06/13 14:43:08;;;;;;;;;;;;;;;33.87;26.64;96955.03;18562793;32;20009;-56
2023/06/13 14:53:12;;;;;;;;;;;;;;;33.53;27.32;96944.34;18562550;32;19941;-57
2023/06/13 15:03:16;;;;;;;;;;;;;;;33.14;26.96;96934.91;18548146;32;19993;-55
2023/06/13 15:13:21;;;;;;;;;;;;;;;31.56;29.57;96934.31;18561550;32;20004;-55
2023/06/13 15:23:28;;;;;;;;;;;;;;;30.68;25.55;96923.03;18560969;31;19991;-52
2023/06/13 15:33:32;;;;;;;;;;;;;;;29.41;29.26;96904.34;18565489;32;19948;-53
2023/06/13 15:43:35;;;;;;;;;;;;;;;28.66;28.91;96891.91;18558839;32;19968;-54
2023/06/13 15:53:38;;;;;;;;;;;;;;;28.26;29.70;96896.12;18573407;32;20306;-49
2023/06/13 16:03:42;;;;;;;;;;;;;;;28.04;26.18;96891.50;18572749;32;19967;-54
2023/06/13 16:13:45;;;;;;;;;;;;;;;27.45;28.59;96882.97;18572404;32;19988;-51
2023/06/13 16:23:47;;;;;;;;;;;;;;;27.21;29.10;96879.84;18571418;32;19960;-51
2023/06/13 16:33:50;;;;;;;;;;;;;;;27.29;28.17;96881.41;18571111;32;20277;-51
2023/06/13 16:43:53;;;;;;;;;;;;;;;27.68;29.18;96886.09;18554900;32;20261;-53
2023/06/13 16:53:56;;;;;;;;;;;;;;;27.25;27.54;96883.41;18569442;32;19957;-51
2023/06/13 17:04:00;;;;;;;;;;;;;;;26.74;27.67;96893.78;18569343;32;19964;-52
2023/06/13 17:14:05;;;;;;;;;;;;;;;26.34;26.39;96885.41;18541482;31;19972;-50
2023/06/13 17:24:13;;;;;;;;;;;;;;;26.27;26.96;96885.41;18568063;32;19964;-51
2023/06/13 17:34:17;;;;;;;;;;;;;;;25.92;25.97;96892.41;18567452;32;19967;-55
2023/06/13 17:44:20;;;;;;;;;;;;;;;25.90;24.78;96911.41;18566486;32;19994;-55
2023/06/13 17:54:24;;;;;;;;;;;;;;;25.54;24.74;96917.59;18565273;32;19971;-55
2023/06/13 18:04:32;;;;;;;;;;;;;;;25.96;25.77;96920.13;18565526;32;19968;-54
2023/06/13 18:14:36;;;;;;;;;;;;;;;30.01;24.13;96931.94;18550085;32;20001;-55
2023/06/13 18:24:40;;;;;;;;;;;;;;;29.98;21.50;96943.91;18564272;32;20276;-55
2023/06/13 18:34:43;;;;;;;;;;;;;;;26.44;24.48;96936.50;18563618;32;19974;-55
2023/06/13 18:44:46;;;;;;;;;;;;;;;24.75;27.04;96932.81;18548730;32;19961;-56
2023/06/13 18:54:55;;;;;;;;;;;;;;;24.02;27.93;96928.50;18548052;32;19976;-54
2023/06/13 19:04:58;;;;;;;;;;;;;;;23.08;30.66;96942.97;18561553;31;19985;-55
2023/06/13 19:15:02;;;;;;;;;;;;;;;22.52;29.94;96958.19;18561650;32;19941;-54
2023/06/13 19:25:09;;;;;;;;;;;;;;;22.25;28.73;96972.63;18534528;32;19964;-53
2023/06/13 19:35:12;;;;;;;;;;;;;;;21.63;33.08;96978.84;18560805;31;19952;-51
2023/06/13 19:45:17;;;;;;;;;;;;;;;21.08;33.26;96987.00;18560880;32;19994;-53
2023/06/13 19:55:26;;;;;;;;;;;;;;;20.81;33.97;97010.66;18560266;32;20320;-50
2023/06/13 20:05:30;;;;;;;;;;;;;;;20.31;36.64;97024.62;18560155;32;19986;-51
2023/06/13 20:15:34;;;;;;;;;;;;;;;20.04;35.82;97047.41;18559907;32;19999;-51
2023/06/13 20:25:37;;;;;;;;;;;;;;;19.71;38.12;97057.38;18569731;32;20292;-52
2023/06/13 20:35:41;;;;;;;;;;;;;;;19.24;41.11;97080.56;18570687;31;20278;-52
2023/06/13 20:45:44;;;;;;;;;;;;;;;18.73;44.57;97077.25;18570483;32;20019;-53
2023/06/13 20:55:47;;;;;;;;;;;;;;;18.34;45.95;97082.13;18569588;31;20234;-51
2023/06/13 21:05:51;;;;;;;;;;;;;;;18.01;48.45;97093.81;18569988;32;19967;-53
2023/06/13 21:15:58;;;;;;;;;;;;;;;17.67;50.46;97090.16;18568631;32;19944;-53
2023/06/13 21:26:01;;;;;;;;;;;;;;;17.32;51.93;97095.78;18554243;32;19956;-51
2023/06/13 21:36:05;;;;;;;;;;;;;;;16.96;55.52;97091.59;18566851;31;19986;-52
2023/06/13 21:46:08;;;;;;;;;;;;;;;16.69;56.51;97096.25;18552133;32;19964;-51
2023/06/13 21:56:11;;;;;;;;;;;;;;;16.37;61.68;97096.47;18566000;32;20002;-52
2023/06/13 22:06:14;;;;;;;;;;;;;;;16.01;61.56;97099.53;18565965;32;19994;-52
2023/06/13 22:16:22;;;;;;;;;;;;;;;15.63;62.40;97103.59;18564846;32;20261;-51
2023/06/13 22:26:27;;;;;;;;;;;;;;;15.29;66.53;97113.25;18564726;32;19972;-54
2023/06/13 22:36:30;;;;;;;;;;;;;;;14.90;71.16;97123.00;18563359;31;19970;-53
2023/06/13 22:46:34;;;;;;;;;;;;;;;14.56;74.74;97125.16;18548652;32;19957;-51
2023/06/13 22:56:37;;;;;;;;;;;;;;;14.24;80.13;97123.47;18562575;32;19949;-51
2023/06/13 23:06:42;;;;;;;;;;;;;;;13.98;83.94;97125.97;18562597;32;19956;-50
2023/06/13 23:16:46;;;;;;;;;;;;;;;13.68;90.09;97123.59;18561774;32;20276;-52
2023/06/13 23:26:49;;;;;;;;;;;;;;;13.34;91.97;97119.34;18561284;32;20000;-49
2023/06/13 23:36:52;;;;;;;;;;;;;;;13.05;94.66;97116.91;18560899;31;19972;-53
2023/06/13 23:46:56;;;;;;;;;;;;;;;12.77;99.67;97111.44;18560599;32;20004;-53
2023/06/13 23:56:59;;;;;;;;;;;;;;;12.49;100.00;97118.69;18566575;32;19956;-51
